createdAt,value
2022-12-12T00:00:44.713Z,97760.44
2022-12-12T00:03:23.992Z,97759.56
2022-12-12T00:05:55.594Z,97760.44
2022-12-12T00:08:22.798Z,97763.00
2022-12-12T00:10:49.877Z,97759.56
2022-12-12T00:13:16.969Z,97756.97
2022-12-12T00:15:43.907Z,97755.22
2022-12-12T00:18:11.100Z,97759.53
2022-12-12T00:20:37.973Z,97757.78
2022-12-12T00:23:05.378Z,97756.88
2022-12-12T00:25:32.345Z,97762.97
2022-12-12T00:28:00.545Z,97757.78
2022-12-12T00:30:27.383Z,97757.78
2022-12-12T00:32:54.543Z,97754.38
2022-12-12T00:35:21.603Z,97756.88
2022-12-12T00:37:48.656Z,97752.59
2022-12-12T00:40:15.540Z,97758.59
2022-12-12T00:42:42.842Z,97759.53
2022-12-12T00:45:11.361Z,97765.53
2022-12-12T00:47:38.762Z,97758.63
2022-12-12T00:50:06.513Z,97768.94
2022-12-12T00:52:33.597Z,97768.94
2022-12-12T00:55:00.659Z,97772.38
2022-12-12T00:57:27.828Z,97771.53
2022-12-12T00:59:54.724Z,97777.56
2022-12-12T01:02:27.851Z,97780.13
2022-12-12T01:04:55.132Z,97774.97
2022-12-12T01:07:22.316Z,97772.47
2022-12-12T01:09:49.391Z,97773.31
2022-12-12T01:12:16.636Z,97769.88
2022-12-12T01:14:43.675Z,97776.78
2022-12-12T01:17:10.788Z,97774.19
2022-12-12T01:19:37.679Z,97778.53
2022-12-12T01:22:04.932Z,97778.56
2022-12-12T01:24:32.125Z,97781.19
2022-12-12T01:26:59.438Z,97782.88
2022-12-12T01:29:26.309Z,97777.69
2022-12-12T01:31:53.576Z,97782.03
2022-12-12T01:34:20.376Z,97782.91
2022-12-12T01:36:47.510Z,97777.78
2022-12-12T01:39:14.372Z,97772.66
2022-12-12T01:41:43.488Z,97776.13
2022-12-12T01:44:43.369Z,97784.72
2022-12-12T01:47:14.114Z,97778.66
2022-12-12T01:49:47.087Z,97778.69
2022-12-12T01:52:23.375Z,97776.06
2022-12-12T01:54:56.774Z,97776.94
2022-12-12T01:57:34.613Z,97774.34
2022-12-12T02:00:06.516Z,97771.78
2022-12-12T02:02:34.002Z,97776.13
2022-12-12T02:05:09.528Z,97780.44
2022-12-12T02:07:36.823Z,97778.69
2022-12-12T02:10:04.508Z,97776.06
2022-12-12T02:12:31.794Z,97777.84
2022-12-12T02:14:58.776Z,97772.66
2022-12-12T02:17:48.084Z,97772.69
2022-12-12T02:20:44.858Z,97774.44
2022-12-12T02:23:45.176Z,97772.69
2022-12-12T02:26:24.066Z,97772.66
2022-12-12T02:29:32.034Z,97769.19
2022-12-12T02:32:18.460Z,97769.19
2022-12-12T02:35:07.062Z,97769.19
2022-12-12T02:38:18.993Z,97774.47
2022-12-12T02:41:07.238Z,97770.16
2022-12-12T02:43:49.438Z,97769.28
2022-12-12T02:46:28.803Z,97764.97
2022-12-12T02:49:24.667Z,97768.44
2022-12-12T02:51:53.872Z,97774.47
2022-12-12T02:54:23.095Z,97771.91
2022-12-12T02:56:55.923Z,97771.03
2022-12-12T02:59:35.973Z,97773.66
2022-12-12T03:03:31.427Z,97775.41
2022-12-12T03:06:39.351Z,97775.44
2022-12-12T03:10:00.877Z,97779.75
2022-12-12T03:13:03.033Z,97777.97
2022-12-12T03:15:56.512Z,97777.97
2022-12-12T03:18:41.773Z,97776.28
2022-12-12T03:21:22.085Z,97778.00
2022-12-12T03:23:55.825Z,97776.25
2022-12-12T03:26:40.005Z,97773.69
2022-12-12T03:29:16.475Z,97774.56
2022-12-12T03:31:53.079Z,97760.81
2022-12-12T03:34:35.638Z,97778.88
2022-12-12T03:37:13.643Z,97772.84
2022-12-12T03:39:53.613Z,97771.06
2022-12-12T03:42:40.204Z,97767.59
2022-12-12T03:45:31.355Z,97778.84
2022-12-12T03:48:16.684Z,97780.56
2022-12-12T03:50:52.607Z,97773.66
2022-12-12T03:53:32.817Z,97777.06
2022-12-12T03:56:25.793Z,97780.50
2022-12-12T03:59:10.343Z,97775.28
2022-12-12T04:01:48.796Z,97787.34
2022-12-12T04:05:00.722Z,97782.19
2022-12-12T04:07:41.441Z,97779.63
2022-12-12T04:10:29.497Z,97778.81
2022-12-12T04:13:20.276Z,97781.38
2022-12-12T04:16:03.261Z,97777.88
2022-12-12T04:19:01.846Z,97777.97
2022-12-12T04:22:05.667Z,97785.66
2022-12-12T04:24:51.167Z,97778.81
2022-12-12T04:27:27.209Z,97778.00
2022-12-12T04:30:09.224Z,97777.97
2022-12-12T04:32:44.973Z,97785.75
2022-12-12T04:35:26.967Z,97784.81
2022-12-12T04:38:04.366Z,97778.81
2022-12-12T04:40:38.575Z,97783.09
2022-12-12T04:43:20.917Z,97783.13
2022-12-12T04:46:00.251Z,97783.16
2022-12-12T04:48:58.231Z,97782.31
2022-12-12T04:51:42.189Z,97786.53
2022-12-12T04:54:16.695Z,97794.34
2022-12-12T04:56:49.246Z,97796.09
2022-12-12T04:59:17.278Z,97796.22
2022-12-12T05:02:18.750Z,97791.03
2022-12-12T05:04:58.010Z,97798.72
2022-12-12T05:07:39.743Z,97803.88
2022-12-12T05:10:13.723Z,97792.69
2022-12-12T05:12:48.952Z,97796.09
2022-12-12T05:15:20.177Z,97795.25
2022-12-12T05:18:05.512Z,97795.28
2022-12-12T05:20:33.201Z,97802.13
2022-12-12T05:23:00.346Z,97796.94
2022-12-12T05:25:27.567Z,97803.03
2022-12-12T05:27:54.447Z,97807.25
2022-12-12T05:30:22.321Z,97804.66
2022-12-12T05:32:49.577Z,97810.69
2022-12-12T05:35:17.297Z,97821.03
2022-12-12T05:37:48.191Z,97811.53
2022-12-12T05:40:20.384Z,97813.28
2022-12-12T05:42:48.427Z,97814.09
2022-12-12T05:45:16.240Z,97815.00
2022-12-12T05:47:43.337Z,97815.84
2022-12-12T05:50:10.825Z,97819.28
2022-12-12T05:52:37.758Z,97817.56
2022-12-12T05:55:06.273Z,97815.81
2022-12-12T05:57:33.171Z,97814.06
2022-12-12T06:00:00.239Z,97817.56
2022-12-12T06:02:27.125Z,97815.88
2022-12-12T06:04:54.351Z,97809.91
2022-12-12T06:07:21.190Z,97812.47
2022-12-12T06:09:48.313Z,97820.25
2022-12-12T06:12:15.196Z,97817.63
2022-12-12T06:14:42.383Z,97814.16
2022-12-12T06:17:09.397Z,97821.94
2022-12-12T06:19:36.592Z,97815.88
2022-12-12T06:22:03.880Z,97815.00
2022-12-12T06:24:31.051Z,97815.78
2022-12-12T06:26:57.897Z,97817.47
2022-12-12T06:29:25.103Z,97819.19
2022-12-12T06:31:52.053Z,97814.06
2022-12-12T06:34:19.255Z,97820.97
2022-12-12T06:36:46.195Z,97815.81
2022-12-12T06:39:13.404Z,97823.53
2022-12-12T06:41:40.502Z,97820.03
2022-12-12T06:44:07.879Z,97823.47
2022-12-12T06:46:35.165Z,97825.19
2022-12-12T06:49:06.883Z,97835.56
2022-12-12T06:51:33.751Z,97833.09
2022-12-12T06:54:00.863Z,97838.19
2022-12-12T06:56:28.269Z,97840.72
2022-12-12T06:58:58.391Z,97837.31
2022-12-12T07:01:25.471Z,97834.75
2022-12-12T07:03:53.252Z,97837.34
2022-12-12T07:06:23.428Z,97838.16
2022-12-12T07:08:52.200Z,97840.72
2022-12-12T07:11:24.311Z,97839.81
2022-12-12T07:13:54.608Z,97837.31
2022-12-12T07:16:21.590Z,97837.25
2022-12-12T07:18:49.539Z,97843.34
2022-12-12T07:21:19.429Z,97844.22
2022-12-12T07:23:47.358Z,97852.81
2022-12-12T07:26:22.515Z,97852.72
2022-12-12T07:28:51.540Z,97847.59
2022-12-12T07:31:22.780Z,97845.78
2022-12-12T07:33:50.048Z,97854.41
2022-12-12T07:36:17.596Z,97853.53
2022-12-12T07:38:45.252Z,97858.66
2022-12-12T07:41:15.985Z,97857.75
2022-12-12T07:43:46.061Z,97862.84
2022-12-12T07:46:24.121Z,97862.84
2022-12-12T07:48:53.453Z,97862.84
2022-12-12T07:51:21.505Z,97874.00
2022-12-12T07:53:49.271Z,97870.50
2022-12-12T07:56:19.160Z,97866.13
2022-12-12T07:58:46.378Z,97872.25
2022-12-12T08:01:18.270Z,97875.69
2022-12-12T08:03:47.402Z,97879.97
2022-12-12T08:06:16.878Z,97871.31
2022-12-12T08:08:45.815Z,97865.19
2022-12-12T08:11:16.427Z,97878.09
2022-12-12T08:13:43.986Z,97883.22
2022-12-12T08:16:22.450Z,97885.72
2022-12-12T08:18:50.249Z,97891.81
2022-12-12T08:21:24.839Z,97884.06
2022-12-12T08:23:57.487Z,97889.09
2022-12-12T08:26:26.169Z,97899.44
2022-12-12T08:28:54.540Z,97893.38
2022-12-12T08:31:22.633Z,97893.28
2022-12-12T08:33:50.963Z,97897.56
2022-12-12T08:36:22.118Z,97896.75
2022-12-12T08:38:50.188Z,97898.38
2022-12-12T08:41:18.945Z,97900.13
2022-12-12T08:43:47.008Z,97896.59
2022-12-12T08:46:18.083Z,97903.47
2022-12-12T08:48:47.781Z,97899.19
2022-12-12T08:51:17.573Z,97897.41
2022-12-12T08:53:46.847Z,97906.91
2022-12-12T08:56:14.892Z,97899.94
2022-12-12T08:58:42.583Z,97906.03
2022-12-12T09:01:24.696Z,97906.13
2022-12-12T09:03:55.057Z,97905.19
2022-12-12T09:06:23.652Z,97907.72
2022-12-12T09:08:50.991Z,97910.31
2022-12-12T09:11:18.786Z,97910.34
2022-12-12T09:13:46.054Z,97914.59
2022-12-12T09:16:14.243Z,97918.88
2022-12-12T09:18:48.694Z,97921.44
2022-12-12T09:21:18.223Z,97924.03
2022-12-12T09:23:45.437Z,97925.88
2022-12-12T09:26:12.788Z,97921.56
2022-12-12T09:28:40.285Z,97921.66
2022-12-12T09:31:10.352Z,97917.38
2022-12-12T09:33:38.500Z,97924.25
2022-12-12T09:36:08.070Z,97926.06
2022-12-12T09:38:36.057Z,97925.13
2022-12-12T09:41:12.561Z,97930.28
2022-12-12T09:43:58.278Z,97929.34
2022-12-12T09:46:51.268Z,97930.22
2022-12-12T09:49:43.413Z,97920.88
2022-12-12T09:52:31.299Z,97924.34
2022-12-12T09:55:34.740Z,97920.88
2022-12-12T09:58:16.876Z,97932.88
2022-12-12T10:01:07.596Z,97931.09
2022-12-12T10:04:05.231Z,97931.00
2022-12-12T10:06:55.397Z,97932.69
2022-12-12T10:10:04.952Z,97931.88
2022-12-12T10:12:34.429Z,97932.69
2022-12-12T10:15:07.947Z,97928.34
2022-12-12T10:17:42.448Z,97926.53
2022-12-12T10:20:22.506Z,97931.63
2022-12-12T10:22:56.734Z,97929.81
2022-12-12T10:25:49.912Z,97927.13
2022-12-12T10:28:21.100Z,97930.56
2022-12-12T10:30:57.019Z,97930.50
2022-12-12T10:33:47.749Z,97927.72
2022-12-12T10:36:29.489Z,97933.66
2022-12-12T10:39:18.132Z,97930.22
2022-12-12T10:42:20.926Z,97936.22
2022-12-12T10:45:21.800Z,97933.56
2022-12-12T10:47:49.723Z,97935.31
2022-12-12T10:50:34.521Z,97933.50
2022-12-12T10:53:08.957Z,97937.75
2022-12-12T10:56:23.394Z,97942.06
2022-12-12T10:59:00.194Z,97939.38
2022-12-12T11:04:22.864Z,97935.97
2022-12-12T11:06:53.733Z,97928.94
2022-12-12T11:09:32.499Z,97935.78
2022-12-12T11:12:15.671Z,97933.94
2022-12-12T11:15:02.342Z,97933.06
2022-12-12T11:17:33.376Z,97933.91
2022-12-12T11:20:08.177Z,97935.63
2022-12-12T11:22:39.784Z,97936.47
2022-12-12T11:25:07.413Z,97929.63
2022-12-12T11:27:41.611Z,97937.31
2022-12-12T11:30:23.173Z,97939.81
2022-12-12T11:32:55.253Z,97941.56
2022-12-12T11:35:36.519Z,97947.56
2022-12-12T11:38:18.838Z,97951.94
2022-12-12T11:41:00.815Z,97945.91
2022-12-12T11:43:31.702Z,97953.81
2022-12-12T11:46:07.831Z,97948.44
2022-12-12T11:48:51.677Z,97950.09
2022-12-12T11:51:38.553Z,97945.69
2022-12-12T11:54:12.989Z,97956.84
2022-12-12T11:57:06.153Z,97943.94
2022-12-12T12:00:15.463Z,97950.78
2022-12-12T12:03:33.818Z,97956.78
2022-12-12T12:06:20.148Z,97949.03
2022-12-12T12:09:33.767Z,97950.75
2022-12-12T12:12:15.792Z,97950.91
2022-12-12T12:15:03.103Z,97946.63
2022-12-12T12:18:14.468Z,97949.16
2022-12-12T12:21:03.273Z,97957.72
2022-12-12T12:23:59.279Z,97957.97
2022-12-12T12:26:43.363Z,97959.78
2022-12-12T12:29:36.043Z,97963.19
2022-12-12T12:32:22.539Z,97963.97
2022-12-12T12:35:19.136Z,97967.47
2022-12-12T12:38:00.757Z,97970.06
2022-12-12T12:40:48.110Z,97969.25
2022-12-12T12:43:24.177Z,97973.56
2022-12-12T12:46:47.086Z,97970.09
2022-12-12T12:49:29.067Z,97972.59
2022-12-12T12:52:01.092Z,97972.50
2022-12-12T12:54:39.119Z,97973.41
2022-12-12T12:57:28.679Z,97974.19
2022-12-12T13:00:03.685Z,97982.81
2022-12-12T13:02:47.219Z,97982.00
2022-12-12T13:05:44.374Z,97981.06
2022-12-12T13:08:50.521Z,97976.84
2022-12-12T13:11:38.562Z,97985.47
2022-12-12T13:14:39.925Z,97976.13
2022-12-12T13:17:17.039Z,97985.72
2022-12-12T13:19:49.956Z,97984.97
2022-12-12T13:22:55.487Z,97991.88
2022-12-12T13:25:50.389Z,97995.25
2022-12-12T13:28:29.391Z,98000.50
2022-12-12T13:31:30.028Z,98002.94
2022-12-12T13:34:03.317Z,98004.69
2022-12-12T13:36:39.807Z,98004.69
2022-12-12T13:39:22.736Z,98010.72
2022-12-12T13:42:02.510Z,98014.22
2022-12-12T13:44:47.523Z,98009.03
2022-12-12T13:47:18.133Z,98016.69
2022-12-12T13:49:55.607Z,98017.59
2022-12-12T13:52:34.823Z,98023.63
2022-12-12T13:55:14.121Z,98020.22
2022-12-12T13:58:16.937Z,98029.81
2022-12-12T14:00:44.502Z,98033.22
2022-12-12T14:03:11.667Z,98029.78
2022-12-12T14:05:52.466Z,98033.44
2022-12-12T14:08:31.757Z,98038.69
2022-12-12T14:11:03.597Z,98042.06
2022-12-12T14:13:45.443Z,98049.03
2022-12-12T14:16:27.050Z,98052.56
2022-12-12T14:19:03.380Z,98049.91
2022-12-12T14:22:34.322Z,98055.94
2022-12-12T14:25:29.030Z,98056.88
2022-12-12T14:28:26.012Z,98060.34
2022-12-12T14:31:05.238Z,98063.06
2022-12-12T14:33:52.761Z,98069.88
2022-12-12T14:36:52.180Z,98066.44
2022-12-12T14:39:56.698Z,98074.22
2022-12-12T14:43:21.288Z,98062.22
2022-12-12T14:45:33.526Z,98069.13
2022-12-12T14:48:26.353Z,98070.84
2022-12-12T14:51:28.980Z,98076.06
2022-12-12T14:54:50.503Z,98082.94
2022-12-12T14:57:25.022Z,98082.03
2022-12-12T14:59:53.164Z,98085.44
2022-12-12T15:02:29.681Z,98083.75
2022-12-12T15:05:05.349Z,98076.84
2022-12-12T15:07:38.388Z,98081.25
2022-12-12T15:10:28.868Z,98084.72
2022-12-12T15:12:57.405Z,98086.53
2022-12-12T15:15:30.625Z,98091.75
2022-12-12T15:18:01.313Z,98092.63
2022-12-12T15:20:32.187Z,98095.22
2022-12-12T15:23:04.383Z,98097.75
2022-12-12T15:25:43.317Z,98095.19
2022-12-12T15:29:14.638Z,98096.91
2022-12-12T15:31:45.659Z,98096.09
2022-12-12T15:34:40.939Z,98106.47
2022-12-12T15:37:22.957Z,98110.78
2022-12-12T15:40:23.374Z,98104.81
2022-12-12T15:42:55.606Z,98110.00
2022-12-12T15:45:38.536Z,98110.88
2022-12-12T15:48:15.595Z,98114.28
2022-12-12T15:50:42.538Z,98118.59
2022-12-12T15:53:26.077Z,98109.16
2022-12-12T15:56:13.816Z,98116.09
2022-12-12T15:58:56.864Z,98115.25
2022-12-12T16:01:29.224Z,98109.16
2022-12-12T16:04:10.156Z,98110.88
2022-12-12T16:06:39.963Z,98112.66
2022-12-12T16:09:24.687Z,98106.59
2022-12-12T16:11:59.447Z,98104.91
2022-12-12T16:14:42.742Z,98107.50
2022-12-12T16:17:20.376Z,98106.59
2022-12-12T16:20:11.368Z,98104.94
2022-12-12T16:22:45.267Z,98099.72
2022-12-12T16:25:18.367Z,98100.56
2022-12-12T16:27:50.188Z,98107.50
2022-12-12T16:30:17.882Z,98104.00
2022-12-12T16:32:44.999Z,98105.75
2022-12-12T16:35:20.051Z,98110.94
2022-12-12T16:37:48.509Z,98111.84
2022-12-12T16:40:19.442Z,98116.13
2022-12-12T16:43:03.633Z,98117.88
2022-12-12T16:45:33.492Z,98122.16
2022-12-12T16:48:00.433Z,98124.81
2022-12-12T16:50:27.598Z,98123.06
2022-12-12T16:52:54.597Z,98120.47
2022-12-12T16:55:24.190Z,98126.53
2022-12-12T16:57:51.121Z,98118.75
2022-12-12T17:00:18.966Z,98121.38
2022-12-12T17:02:46.059Z,98125.72
2022-12-12T17:05:23.454Z,98125.72
2022-12-12T17:07:53.979Z,98125.75
2022-12-12T17:10:27.196Z,98126.69
2022-12-12T17:12:54.829Z,98120.69
2022-12-12T17:15:27.598Z,98126.72
2022-12-12T17:17:55.861Z,98126.72
2022-12-12T17:20:25.066Z,98132.78
2022-12-12T17:23:31.252Z,98132.78
2022-12-12T17:26:31.581Z,98139.63
2022-12-12T17:28:58.857Z,98140.47
2022-12-12T17:31:25.906Z,98142.22
2022-12-12T17:33:53.044Z,98143.09
2022-12-12T17:36:20.188Z,98138.72
2022-12-12T17:38:52.204Z,98132.69
2022-12-12T17:41:19.872Z,98136.97
2022-12-12T17:43:53.697Z,98137.81
2022-12-12T17:46:23.884Z,98143.88
2022-12-12T17:48:51.211Z,98151.66
2022-12-12T17:51:23.706Z,98159.41
2022-12-12T17:53:52.689Z,98149.94
2022-12-12T17:56:24.294Z,98147.34
2022-12-12T17:58:52.506Z,98149.06
2022-12-12T18:02:24.842Z,98153.50
2022-12-12T18:04:52.742Z,98145.75
2022-12-12T18:07:20.060Z,98155.31
2022-12-12T18:09:47.285Z,98160.50
2022-12-12T18:12:14.247Z,98163.09
2022-12-12T18:14:41.537Z,98171.75
2022-12-12T18:17:08.580Z,98165.72
2022-12-12T18:19:35.827Z,98171.75
2022-12-12T18:22:02.793Z,98170.06
2022-12-12T18:24:30.430Z,98172.66
2022-12-12T18:27:00.326Z,98183.84
2022-12-12T18:29:28.731Z,98189.97
2022-12-12T18:31:55.986Z,98193.41
2022-12-12T18:34:23.259Z,98196.00
2022-12-12T18:36:50.408Z,98199.50
2022-12-12T18:39:17.680Z,98198.69
2022-12-12T18:41:44.564Z,98202.13
2022-12-12T18:44:15.264Z,98208.19
2022-12-12T18:46:43.908Z,98209.06
2022-12-12T18:49:15.569Z,98217.69
2022-12-12T18:51:44.856Z,98216.84
2022-12-12T18:54:15.779Z,98219.44
2022-12-12T18:56:45.467Z,98234.97
2022-12-12T18:59:13.685Z,98235.84
2022-12-12T19:01:41.065Z,98243.63
2022-12-12T19:04:13.173Z,98247.94
2022-12-12T19:06:42.393Z,98249.69
2022-12-12T19:09:19.275Z,98253.13
2022-12-12T19:11:47.344Z,98248.81
2022-12-12T19:14:16.956Z,98247.94
2022-12-12T19:16:45.196Z,98250.56
2022-12-12T19:19:13.862Z,98243.66
2022-12-12T19:21:42.394Z,98247.97
2022-12-12T19:24:12.283Z,98248.06
2022-12-12T19:26:43.847Z,98248.13
2022-12-12T19:29:15.170Z,98251.56
2022-12-12T19:31:43.020Z,98251.56
2022-12-12T19:34:14.000Z,98258.44
2022-12-12T19:36:42.540Z,98264.50
2022-12-12T19:39:12.307Z,98262.78
2022-12-12T19:41:39.463Z,98262.78
2022-12-12T19:44:08.950Z,98275.75
2022-12-12T19:46:36.248Z,98274.88
2022-12-12T19:49:08.600Z,98268.88
2022-12-12T19:51:39.262Z,98266.34
2022-12-12T19:54:10.453Z,98265.50
2022-12-12T19:56:41.635Z,98271.53
2022-12-12T19:59:13.353Z,98281.94
2022-12-12T20:01:41.668Z,98285.38
2022-12-12T20:04:22.317Z,98282.81
2022-12-12T20:06:50.993Z,98284.53
2022-12-12T20:09:29.203Z,98294.03
2022-12-12T20:12:00.479Z,98284.53
2022-12-12T20:14:32.492Z,98290.59
2022-12-12T20:17:00.030Z,98294.03
2022-12-12T20:19:27.915Z,98297.53
2022-12-12T20:22:01.310Z,98304.44
2022-12-12T20:24:30.572Z,98308.72
2022-12-12T20:26:59.742Z,98304.44
2022-12-12T20:29:27.978Z,98302.69
2022-12-12T20:31:54.807Z,98295.81
2022-12-12T20:34:24.636Z,98303.56
2022-12-12T20:36:55.502Z,98300.09
2022-12-12T20:39:24.889Z,98304.44
2022-12-12T20:41:53.857Z,98307.91
2022-12-12T20:44:24.284Z,98305.31
2022-12-12T20:46:52.229Z,98319.94
2022-12-12T20:49:22.347Z,98311.34
2022-12-12T20:51:57.877Z,98308.75
2022-12-12T20:54:28.888Z,98311.34
2022-12-12T20:56:58.029Z,98313.94
2022-12-12T20:59:26.483Z,98316.53
2022-12-12T21:01:53.758Z,98318.25
2022-12-12T21:04:21.397Z,98313.94
2022-12-12T21:06:49.610Z,98319.97
2022-12-12T21:09:24.435Z,98322.56
2022-12-12T21:11:55.837Z,98313.06
2022-12-12T21:14:25.146Z,98305.31
2022-12-12T21:16:52.518Z,98299.28
2022-12-12T21:19:20.948Z,98297.56
2022-12-12T21:21:47.796Z,98301.91
2022-12-12T21:24:17.750Z,98313.97
2022-12-12T21:26:46.081Z,98312.22
2022-12-12T21:29:15.441Z,98307.91
2022-12-12T21:31:50.356Z,98314.81
2022-12-12T21:34:22.013Z,98306.19
2022-12-12T21:36:56.204Z,98313.94
2022-12-12T21:39:27.226Z,98321.69
2022-12-12T21:41:54.935Z,98322.59
2022-12-12T21:44:22.490Z,98323.41
2022-12-12T21:46:49.643Z,98323.44
2022-12-12T21:49:20.108Z,98322.59
2022-12-12T21:51:47.018Z,98323.44
2022-12-12T21:54:15.803Z,98324.28
2022-12-12T21:56:43.484Z,98321.72
2022-12-12T21:59:13.498Z,98324.31
2022-12-12T22:01:41.607Z,98321.72
2022-12-12T22:04:11.745Z,98325.16
2022-12-12T22:06:39.319Z,98319.97
2022-12-12T22:09:10.442Z,98320.81
2022-12-12T22:11:41.879Z,98326.88
2022-12-12T22:14:19.841Z,98327.72
2022-12-12T22:16:47.016Z,98330.31
2022-12-12T22:19:16.620Z,98335.47
2022-12-12T22:21:46.645Z,98331.19
2022-12-12T22:24:15.440Z,98328.59
2022-12-12T22:26:46.156Z,98332.91
2022-12-12T22:29:19.445Z,98321.69
2022-12-12T22:31:49.923Z,98332.91
2022-12-12T22:34:22.037Z,98325.13
2022-12-12T22:36:50.477Z,98325.13
2022-12-12T22:39:21.856Z,98325.13
2022-12-12T22:41:50.716Z,98328.56
2022-12-12T22:44:21.548Z,98332.91
2022-12-12T22:46:51.493Z,98331.16
2022-12-12T22:49:25.522Z,98332.03
2022-12-12T22:51:54.819Z,98344.06
2022-12-12T22:54:22.066Z,98332.88
2022-12-12T22:56:48.931Z,98329.44
2022-12-12T22:59:16.165Z,98327.69
2022-12-12T23:01:43.456Z,98334.56
2022-12-12T23:04:13.925Z,98326.81
2022-12-12T23:06:42.445Z,98328.53
2022-12-12T23:09:16.848Z,98326.75
2022-12-12T23:11:45.432Z,98325.03
2022-12-12T23:14:17.558Z,98325.03
2022-12-12T23:16:45.316Z,98325.00
2022-12-12T23:19:17.224Z,98325.81
2022-12-12T23:21:45.055Z,98321.50
2022-12-12T23:24:12.984Z,98326.66
2022-12-12T23:26:40.539Z,98325.81
2022-12-12T23:29:12.814Z,98326.66
2022-12-12T23:31:40.001Z,98324.06
2022-12-12T23:34:15.983Z,98320.63
2022-12-12T23:36:43.763Z,98324.94
2022-12-12T23:39:12.926Z,98325.75
2022-12-12T23:41:40.773Z,98330.94
2022-12-12T23:44:08.792Z,98324.94
2022-12-12T23:46:36.504Z,98324.94
2022-12-12T23:49:19.632Z,98325.81
2022-12-12T23:51:49.711Z,98318.94
2022-12-12T23:54:24.057Z,98318.09
2022-12-12T23:56:53.251Z,98312.03
2022-12-12T23:59:21.702Z,98321.50
